TimeCDT,TemperatureF,Dew PointF,Humidity,Sea Level PressureIn,VisibilityMPH,Wind Direction,Wind SpeedMPH,Gust SpeedMPH,PrecipitationIn,Events,Conditions,WindDirDegrees,DateUTC
12:15 AM,66.2,59.0,78,29.86,10.0,NE,5.8,-,N/A,,Overcast,40,2013-05-17 05:15:00
12:35 AM,64.4,57.2,77,29.85,10.0,North,4.6,-,N/A,,Scattered Clouds,360,2013-05-17 05:35:00
12:55 AM,62.6,57.2,82,29.84,10.0,East,6.9,-,N/A,,Mostly Cloudy,80,2013-05-17 05:55:00
1:15 AM,62.6,57.2,82,29.85,10.0,ENE,4.6,-,N/A,,Overcast,70,2013-05-17 06:15:00
1:35 AM,62.6,59.0,88,29.85,10.0,East,6.9,-,0.01,Rain,Light Rain,80,2013-05-17 06:35:00
1:55 AM,62.6,59.0,88,29.84,10.0,ENE,6.9,-,0.01,,Light Drizzle,70,2013-05-17 06:55:00
2:15 AM,62.6,59.0,88,29.83,10.0,East,6.9,-,N/A,,Scattered Clouds,90,2013-05-17 07:15:00
2:35 AM,62.6,59.0,88,29.83,10.0,East,6.9,-,N/A,,Clear,90,2013-05-17 07:35:00
2:55 AM,62.6,57.2,82,29.83,10.0,East,6.9,-,N/A,,Clear,80,2013-05-17 07:55:00
3:15 AM,62.6,57.2,82,29.84,10.0,East,6.9,-,N/A,,Clear,80,2013-05-17 08:15:00
3:35 AM,60.8,57.2,88,29.83,10.0,East,8.1,-,N/A,,Clear,80,2013-05-17 08:35:00
3:55 AM,60.8,57.2,88,29.83,10.0,East,9.2,-,N/A,,Clear,90,2013-05-17 08:55:00
4:15 AM,60.8,57.2,88,29.83,10.0,East,9.2,-,N/A,,Clear,90,2013-05-17 09:15:00
4:35 AM,60.8,57.2,88,29.84,10.0,East,6.9,-,N/A,,Clear,80,2013-05-17 09:35:00
4:55 AM,60.8,57.2,88,29.85,10.0,East,8.1,-,N/A,,Clear,90,2013-05-17 09:55:00
5:15 AM,60.8,57.2,88,29.85,10.0,East,8.1,-,N/A,,Clear,100,2013-05-17 10:15:00
5:35 AM,60.8,57.2,88,29.86,10.0,East,6.9,-,N/A,,Clear,100,2013-05-17 10:35:00
5:55 AM,60.8,57.2,88,29.86,10.0,East,5.8,-,N/A,,Clear,100,2013-05-17 10:55:00
6:15 AM,60.8,57.2,88,29.86,7.0,East,6.9,-,N/A,,Clear,100,2013-05-17 11:15:00
7:15 AM,60.8,57.2,88,29.88,5.0,ESE,5.8,-,N/A,,Clear,110,2013-05-17 12:15:00
7:35 AM,62.6,59.0,88,29.88,7.0,ESE,4.6,-,N/A,,Clear,120,2013-05-17 12:35:00
7:55 AM,64.4,59.0,83,29.88,7.0,ESE,6.9,-,N/A,,Clear,120,2013-05-17 12:55:00
8:15 AM,66.2,60.8,83,29.88,7.0,ESE,5.8,-,N/A,,Clear,110,2013-05-17 13:15:00
8:35 AM,66.2,60.8,83,29.89,7.0,SE,4.6,-,N/A,,Mostly Cloudy,130,2013-05-17 13:35:00
8:55 AM,66.2,60.8,83,29.89,7.0,SE,8.1,-,N/A,,Scattered Clouds,130,2013-05-17 13:55:00
9:15 AM,69.8,60.8,73,29.89,10.0,SE,8.1,-,N/A,,Clear,130,2013-05-17 14:15:00
9:35 AM,69.8,62.6,78,29.88,10.0,SSE,5.8,-,N/A,,Clear,150,2013-05-17 14:35:00
9:55 AM,71.6,62.6,73,29.88,10.0,SSE,8.1,-,N/A,,Scattered Clouds,150,2013-05-17 14:55:00
10:15 AM,71.6,60.8,69,29.88,10.0,SSE,8.1,-,N/A,,Clear,160,2013-05-17 15:15:00
10:35 AM,71.6,62.6,73,29.88,10.0,South,8.1,-,N/A,,Clear,170,2013-05-17 15:35:00
10:55 AM,71.6,62.6,73,29.88,10.0,South,9.2,-,N/A,,Scattered Clouds,170,2013-05-17 15:55:00
11:15 AM,73.4,62.6,69,29.88,10.0,South,10.4,-,N/A,,Scattered Clouds,170,2013-05-17 16:15:00
11:35 AM,75.2,62.6,65,29.87,10.0,South,12.7,18.4,N/A,,Scattered Clouds,180,2013-05-17 16:35:00
12:15 PM,77.0,62.6,61,29.87,10.0,South,15.0,18.4,N/A,,Scattered Clouds,190,2013-05-17 17:15:00
12:35 PM,75.2,62.6,65,29.87,10.0,South,11.5,-,N/A,,Scattered Clouds,190,2013-05-17 17:35:00
12:55 PM,75.2,60.8,61,29.87,10.0,South,12.7,-,N/A,,Scattered Clouds,190,2013-05-17 17:55:00
1:15 PM,77.0,60.8,57,29.86,10.0,South,15.0,18.4,N/A,,Clear,190,2013-05-17 18:15:00
1:35 PM,78.8,60.8,54,29.86,10.0,South,13.8,18.4,N/A,,Clear,190,2013-05-17 18:35:00
2:15 PM,78.8,60.8,54,29.85,10.0,South,15.0,20.7,N/A,,Clear,190,2013-05-17 19:15:00
2:35 PM,80.6,60.8,51,29.85,10.0,South,15.0,18.4,N/A,,Clear,190,2013-05-17 19:35:00
2:55 PM,80.6,60.8,51,29.85,10.0,SSW,15.0,20.7,N/A,,Clear,200,2013-05-17 19:55:00
3:15 PM,80.6,59.0,48,29.84,10.0,South,13.8,18.4,N/A,,Clear,180,2013-05-17 20:15:00
3:35 PM,82.4,57.2,42,29.84,10.0,SSW,13.8,-,N/A,,Clear,200,2013-05-17 20:35:00
3:55 PM,82.4,57.2,42,29.83,10.0,South,11.5,20.7,N/A,,Clear,170,2013-05-17 20:55:00
4:15 PM,82.4,57.2,42,29.82,10.0,South,16.1,20.7,N/A,,Clear,180,2013-05-17 21:15:00
4:35 PM,84.2,57.2,40,29.81,10.0,South,13.8,23.0,N/A,,Clear,180,2013-05-17 21:35:00
4:55 PM,82.4,57.2,42,29.81,10.0,South,11.5,20.7,N/A,,Clear,170,2013-05-17 21:55:00
5:15 PM,84.2,57.2,40,29.81,10.0,South,15.0,23.0,N/A,,Clear,170,2013-05-17 22:15:00
5:35 PM,84.2,57.2,40,29.81,10.0,SSE,12.7,19.6,N/A,,Clear,160,2013-05-17 22:35:00
5:55 PM,84.2,57.2,40,29.81,10.0,SSE,13.8,-,N/A,,Clear,160,2013-05-17 22:55:00
6:15 PM,84.2,57.2,40,29.81,10.0,SSE,10.4,-,N/A,,Clear,160,2013-05-17 23:15:00
6:35 PM,84.2,55.4,37,29.81,10.0,SSE,11.5,17.3,N/A,,Clear,160,2013-05-17 23:35:00
7:15 PM,82.4,57.2,42,29.81,10.0,SSE,12.7,18.4,N/A,,Clear,150,2013-05-18 00:15:00
7:35 PM,80.6,57.2,45,29.81,10.0,SE,10.4,17.3,N/A,,Clear,140,2013-05-18 00:35:00
7:55 PM,80.6,55.4,42,29.82,10.0,SE,9.2,-,N/A,,Clear,140,2013-05-18 00:55:00
8:15 PM,78.8,57.2,47,29.82,10.0,SE,10.4,-,N/A,,Clear,140,2013-05-18 01:15:00
8:35 PM,78.8,57.2,47,29.83,10.0,SSE,6.9,-,N/A,,Clear,150,2013-05-18 01:35:00
8:55 PM,75.2,57.2,53,29.84,10.0,SSE,8.1,-,N/A,,Clear,150,2013-05-18 01:55:00
9:15 PM,75.2,59.0,57,29.84,10.0,SSE,5.8,-,N/A,,Clear,160,2013-05-18 02:15:00
9:35 PM,73.4,57.2,57,29.85,10.0,SSE,8.1,-,N/A,,Clear,150,2013-05-18 02:35:00
9:55 PM,73.4,59.0,61,29.85,10.0,SSE,8.1,-,N/A,,Clear,150,2013-05-18 02:55:00
10:15 PM,73.4,59.0,61,29.85,10.0,SSE,9.2,-,N/A,,Clear,160,2013-05-18 03:15:00
10:35 PM,73.4,59.0,61,29.85,10.0,SSE,9.2,-,N/A,,Clear,160,2013-05-18 03:35:00
10:55 PM,71.6,59.0,64,29.86,10.0,SSE,8.1,-,N/A,,Clear,150,2013-05-18 03:55:00
11:15 PM,69.8,59.0,68,29.86,10.0,SSE,8.1,-,N/A,,Clear,150,2013-05-18 04:15:00
11:35 PM,69.8,57.2,64,29.86,10.0,SSE,9.2,-,N/A,,Clear,160,2013-05-18 04:35:00
11:55 PM,68.0,57.2,68,29.87,10.0,SSE,9.2,-,N/A,,Clear,160,2013-05-18 04:55:00